Terminal Aerodrome Forecast
Issued by NWS

Current Version | Previous Version | Graphics & Text | Print | Product List | Glossary On
Versions: 1 2 3 4 5 6 7 8 9 10 11 12 13 14 15 16 17
191
FTUS41 KILN 220348 AAA
TAFLUK
TAF AMD
KLUK 220348Z 2204/2224 00000KT 2SM BR SKC
      TEMPO 2204/2208 1/2SM FG BKN002
     FM221200 34003KT P6SM SKC
     FM221500 32010KT P6SM SCT100=

USA.gov is the U.S. government's official web portal to all federal, state and local government web resources and services.